sensor_id;sensor_type;location;lat;lon;timestamp;P1;durP1;ratioP1;P2;durP2;ratioP2
63005;SDS011;53704;52.532;6.426;2024-01-30T00:00:42;24.05;;;17.25;;
63005;SDS011;53704;52.532;6.426;2024-01-30T00:03:07;25.67;;;18.88;;
63005;SDS011;53704;52.532;6.426;2024-01-30T00:05:32;25.17;;;18.23;;
63005;SDS011;53704;52.532;6.426;2024-01-30T00:07:58;24.45;;;18.52;;
63005;SDS011;53704;52.532;6.426;2024-01-30T00:10:23;25.33;;;17.92;;
63005;SDS011;53704;52.532;6.426;2024-01-30T00:12:49;23.58;;;17.98;;
63005;SDS011;53704;52.532;6.426;2024-01-30T00:15:14;31.23;;;19.38;;
63005;SDS011;53704;52.532;6.426;2024-01-30T00:17:40;24.35;;;17.70;;
63005;SDS011;53704;52.532;6.426;2024-01-30T00:20:06;24.65;;;17.35;;
63005;SDS011;53704;52.532;6.426;2024-01-30T00:22:32;21.23;;;17.13;;
63005;SDS011;53704;52.532;6.426;2024-01-30T00:24:57;26.45;;;15.95;;
63005;SDS011;53704;52.532;6.426;2024-01-30T00:27:23;24.95;;;16.45;;
63005;SDS011;53704;52.532;6.426;2024-01-30T00:29:48;23.05;;;15.75;;
63005;SDS011;53704;52.532;6.426;2024-01-30T00:32:14;20.98;;;15.55;;
63005;SDS011;53704;52.532;6.426;2024-01-30T00:34:39;21.80;;;16.00;;
63005;SDS011;53704;52.532;6.426;2024-01-30T00:37:05;24.52;;;14.77;;
63005;SDS011;53704;52.532;6.426;2024-01-30T00:39:30;19.98;;;14.88;;
63005;SDS011;53704;52.532;6.426;2024-01-30T00:41:55;22.42;;;14.48;;
63005;SDS011;53704;52.532;6.426;2024-01-30T00:44:21;19.85;;;15.40;;
63005;SDS011;53704;52.532;6.426;2024-01-30T00:46:46;17.08;;;14.65;;
63005;SDS011;53704;52.532;6.426;2024-01-30T00:49:12;24.80;;;15.55;;
63005;SDS011;53704;52.532;6.426;2024-01-30T00:51:37;32.90;;;16.02;;
63005;SDS011;53704;52.532;6.426;2024-01-30T00:54:03;24.63;;;15.60;;
63005;SDS011;53704;52.532;6.426;2024-01-30T00:56:28;18.17;;;15.05;;
63005;SDS011;53704;52.532;6.426;2024-01-30T00:58:54;20.88;;;15.93;;
63005;SDS011;53704;52.532;6.426;2024-01-30T01:01:19;23.13;;;15.45;;
63005;SDS011;53704;52.532;6.426;2024-01-30T01:03:45;26.83;;;16.70;;
63005;SDS011;53704;52.532;6.426;2024-01-30T01:06:13;22.73;;;15.85;;
63005;SDS011;53704;52.532;6.426;2024-01-30T01:08:39;28.27;;;16.35;;
63005;SDS011;53704;52.532;6.426;2024-01-30T01:11:04;23.30;;;15.13;;
63005;SDS011;53704;52.532;6.426;2024-01-30T01:13:30;24.23;;;15.90;;
63005;SDS011;53704;52.532;6.426;2024-01-30T01:15:55;20.60;;;15.93;;
63005;SDS011;53704;52.532;6.426;2024-01-30T01:18:21;23.25;;;15.60;;
63005;SDS011;53704;52.532;6.426;2024-01-30T01:20:46;19.95;;;15.10;;
63005;SDS011;53704;52.532;6.426;2024-01-30T01:23:12;22.20;;;15.50;;
63005;SDS011;53704;52.532;6.426;2024-01-30T01:25:37;25.63;;;16.58;;
63005;SDS011;53704;52.532;6.426;2024-01-30T01:28:03;26.38;;;16.02;;
63005;SDS011;53704;52.532;6.426;2024-01-30T01:30:28;20.00;;;14.90;;
63005;SDS011;53704;52.532;6.426;2024-01-30T01:32:55;19.83;;;14.27;;
63005;SDS011;53704;52.532;6.426;2024-01-30T01:35:24;27.05;;;15.07;;
63005;SDS011;53704;52.532;6.426;2024-01-30T01:37:51;22.17;;;14.95;;
63005;SDS011;53704;52.532;6.426;2024-01-30T01:40:25;19.00;;;16.02;;
63005;SDS011;53704;52.532;6.426;2024-01-30T01:42:52;25.77;;;14.98;;
63005;SDS011;53704;52.532;6.426;2024-01-30T01:45:20;18.73;;;14.80;;
63005;SDS011;53704;52.532;6.426;2024-01-30T01:47:47;21.30;;;14.77;;
63005;SDS011;53704;52.532;6.426;2024-01-30T01:50:16;22.10;;;15.50;;
63005;SDS011;53704;52.532;6.426;2024-01-30T01:52:43;27.77;;;15.68;;
63005;SDS011;53704;52.532;6.426;2024-01-30T01:55:10;22.40;;;16.17;;
63005;SDS011;53704;52.532;6.426;2024-01-30T01:57:37;20.83;;;15.68;;
63005;SDS011;53704;52.532;6.426;2024-01-30T02:00:03;19.92;;;14.93;;
63005;SDS011;53704;52.532;6.426;2024-01-30T02:02:32;19.70;;;14.15;;
63005;SDS011;53704;52.532;6.426;2024-01-30T02:05:00;18.30;;;14.38;;
63005;SDS011;53704;52.532;6.426;2024-01-30T02:07:27;22.85;;;13.95;;
63005;SDS011;53704;52.532;6.426;2024-01-30T02:09:53;16.30;;;13.65;;
63005;SDS011;53704;52.532;6.426;2024-01-30T02:12:19;17.92;;;13.77;;
63005;SDS011;53704;52.532;6.426;2024-01-30T02:14:47;17.95;;;14.70;;
63005;SDS011;53704;52.532;6.426;2024-01-30T02:17:14;18.27;;;14.25;;
63005;SDS011;53704;52.532;6.426;2024-01-30T02:19:41;20.35;;;14.07;;
63005;SDS011;53704;52.532;6.426;2024-01-30T02:22:06;20.70;;;14.23;;
63005;SDS011;53704;52.532;6.426;2024-01-30T02:24:32;18.25;;;14.07;;
63005;SDS011;53704;52.532;6.426;2024-01-30T02:26:58;22.85;;;14.60;;
63005;SDS011;53704;52.532;6.426;2024-01-30T02:29:23;27.67;;;14.60;;
63005;SDS011;53704;52.532;6.426;2024-01-30T02:31:49;18.17;;;14.15;;
63005;SDS011;53704;52.532;6.426;2024-01-30T02:34:14;22.48;;;15.35;;
63005;SDS011;53704;52.532;6.426;2024-01-30T02:36:42;22.15;;;15.48;;
63005;SDS011;53704;52.532;6.426;2024-01-30T02:39:08;25.75;;;15.60;;
63005;SDS011;53704;52.532;6.426;2024-01-30T02:41:34;25.92;;;16.77;;
63005;SDS011;53704;52.532;6.426;2024-01-30T02:44:00;20.92;;;15.60;;
63005;SDS011;53704;52.532;6.426;2024-01-30T02:46:25;21.33;;;15.48;;
63005;SDS011;53704;52.532;6.426;2024-01-30T02:48:51;20.30;;;13.98;;
63005;SDS011;53704;52.532;6.426;2024-01-30T02:51:16;22.23;;;14.85;;
63005;SDS011;53704;52.532;6.426;2024-01-30T02:53:42;18.33;;;15.05;;
63005;SDS011;53704;52.532;6.426;2024-01-30T02:56:07;21.15;;;14.52;;
63005;SDS011;53704;52.532;6.426;2024-01-30T02:58:35;24.30;;;14.60;;
63005;SDS011;53704;52.532;6.426;2024-01-30T03:01:01;23.92;;;14.52;;
63005;SDS011;53704;52.532;6.426;2024-01-30T03:03:27;22.60;;;14.75;;
63005;SDS011;53704;52.532;6.426;2024-01-30T03:05:52;21.83;;;15.13;;
63005;SDS011;53704;52.532;6.426;2024-01-30T03:08:18;20.05;;;15.90;;
63005;SDS011;53704;52.532;6.426;2024-01-30T03:10:43;17.60;;;14.30;;
63005;SDS011;53704;52.532;6.426;2024-01-30T03:13:09;21.65;;;14.60;;
63005;SDS011;53704;52.532;6.426;2024-01-30T03:15:34;17.90;;;14.88;;
63005;SDS011;53704;52.532;6.426;2024-01-30T03:17:59;22.92;;;14.55;;
63005;SDS011;53704;52.532;6.426;2024-01-30T03:20:25;20.38;;;14.38;;
63005;SDS011;53704;52.532;6.426;2024-01-30T03:22:50;23.70;;;14.90;;
63005;SDS011;53704;52.532;6.426;2024-01-30T03:25:16;20.67;;;16.10;;
63005;SDS011;53704;52.532;6.426;2024-01-30T03:27:41;16.50;;;13.98;;
63005;SDS011;53704;52.532;6.426;2024-01-30T03:30:07;23.35;;;15.27;;
63005;SDS011;53704;52.532;6.426;2024-01-30T03:32:33;18.13;;;14.27;;
63005;SDS011;53704;52.532;6.426;2024-01-30T03:34:59;18.13;;;13.50;;
63005;SDS011;53704;52.532;6.426;2024-01-30T03:37:24;18.30;;;14.43;;
63005;SDS011;53704;52.532;6.426;2024-01-30T03:39:50;24.25;;;15.77;;
63005;SDS011;53704;52.532;6.426;2024-01-30T03:42:15;17.85;;;15.00;;
63005;SDS011;53704;52.532;6.426;2024-01-30T03:44:41;24.02;;;16.25;;
63005;SDS011;53704;52.532;6.426;2024-01-30T03:47:06;18.83;;;14.95;;
63005;SDS011;53704;52.532;6.426;2024-01-30T03:49:32;27.17;;;16.52;;
63005;SDS011;53704;52.532;6.426;2024-01-30T03:51:57;22.17;;;15.75;;
63005;SDS011;53704;52.532;6.426;2024-01-30T03:54:23;20.00;;;15.65;;
63005;SDS011;53704;52.532;6.426;2024-01-30T03:56:48;24.08;;;16.08;;
63005;SDS011;53704;52.532;6.426;2024-01-30T03:59:13;27.90;;;15.77;;
63005;SDS011;53704;52.532;6.426;2024-01-30T04:01:39;27.38;;;16.75;;
63005;SDS011;53704;52.532;6.426;2024-01-30T04:04:04;26.40;;;16.45;;
63005;SDS011;53704;52.532;6.426;2024-01-30T04:06:30;25.52;;;16.15;;
63005;SDS011;53704;52.532;6.426;2024-01-30T04:08:55;24.27;;;15.30;;
63005;SDS011;53704;52.532;6.426;2024-01-30T04:11:21;22.50;;;15.35;;
63005;SDS011;53704;52.532;6.426;2024-01-30T04:13:46;27.80;;;15.95;;
63005;SDS011;53704;52.532;6.426;2024-01-30T04:16:20;21.92;;;15.55;;
63005;SDS011;53704;52.532;6.426;2024-01-30T04:18:47;22.55;;;16.17;;
63005;SDS011;53704;52.532;6.426;2024-01-30T04:21:13;24.27;;;16.60;;
63005;SDS011;53704;52.532;6.426;2024-01-30T04:23:39;22.35;;;15.45;;
63005;SDS011;53704;52.532;6.426;2024-01-30T04:26:07;21.60;;;15.40;;
63005;SDS011;53704;52.532;6.426;2024-01-30T04:28:33;22.13;;;14.80;;
63005;SDS011;53704;52.532;6.426;2024-01-30T04:30:58;26.58;;;15.27;;
63005;SDS011;53704;52.532;6.426;2024-01-30T04:33:24;26.85;;;16.67;;
63005;SDS011;53704;52.532;6.426;2024-01-30T04:35:49;26.08;;;14.73;;
63005;SDS011;53704;52.532;6.426;2024-01-30T04:38:14;21.15;;;16.02;;
63005;SDS011;53704;52.532;6.426;2024-01-30T04:40:40;21.10;;;15.23;;
63005;SDS011;53704;52.532;6.426;2024-01-30T04:43:05;19.15;;;14.80;;
63005;SDS011;53704;52.532;6.426;2024-01-30T04:45:31;20.40;;;14.90;;
63005;SDS011;53704;52.532;6.426;2024-01-30T04:47:57;23.33;;;15.65;;
63005;SDS011;53704;52.532;6.426;2024-01-30T04:50:22;22.63;;;14.73;;
63005;SDS011;53704;52.532;6.426;2024-01-30T04:52:48;21.92;;;15.18;;
63005;SDS011;53704;52.532;6.426;2024-01-30T04:55:14;31.00;;;15.77;;
63005;SDS011;53704;52.532;6.426;2024-01-30T04:57:42;21.83;;;15.55;;
63005;SDS011;53704;52.532;6.426;2024-01-30T05:00:08;19.05;;;14.75;;
63005;SDS011;53704;52.532;6.426;2024-01-30T05:02:34;17.80;;;14.32;;
63005;SDS011;53704;52.532;6.426;2024-01-30T05:04:59;19.77;;;15.02;;
63005;SDS011;53704;52.532;6.426;2024-01-30T05:07:24;28.67;;;14.95;;
63005;SDS011;53704;52.532;6.426;2024-01-30T05:09:50;23.70;;;14.80;;
63005;SDS011;53704;52.532;6.426;2024-01-30T05:12:16;19.50;;;14.35;;
63005;SDS011;53704;52.532;6.426;2024-01-30T05:14:41;19.83;;;13.20;;
63005;SDS011;53704;52.532;6.426;2024-01-30T05:17:06;22.45;;;13.63;;
63005;SDS011;53704;52.532;6.426;2024-01-30T05:19:34;26.17;;;13.65;;
63005;SDS011;53704;52.532;6.426;2024-01-30T05:21:59;16.80;;;13.98;;
63005;SDS011;53704;52.532;6.426;2024-01-30T05:24:25;15.35;;;13.68;;
63005;SDS011;53704;52.532;6.426;2024-01-30T05:26:50;21.00;;;13.10;;
63005;SDS011;53704;52.532;6.426;2024-01-30T05:29:16;16.60;;;13.57;;
63005;SDS011;53704;52.532;6.426;2024-01-30T05:31:42;18.92;;;13.80;;
63005;SDS011;53704;52.532;6.426;2024-01-30T05:34:08;20.92;;;13.27;;
63005;SDS011;53704;52.532;6.426;2024-01-30T05:36:34;18.88;;;14.10;;
63005;SDS011;53704;52.532;6.426;2024-01-30T05:38:59;24.08;;;14.25;;
63005;SDS011;53704;52.532;6.426;2024-01-30T05:41:25;16.25;;;13.90;;
63005;SDS011;53704;52.532;6.426;2024-01-30T05:43:50;18.85;;;13.60;;
63005;SDS011;53704;52.532;6.426;2024-01-30T05:46:18;20.25;;;13.10;;
63005;SDS011;53704;52.532;6.426;2024-01-30T05:48:44;17.67;;;13.77;;
63005;SDS011;53704;52.532;6.426;2024-01-30T05:51:09;25.00;;;12.77;;
63005;SDS011;53704;52.532;6.426;2024-01-30T05:53:35;18.25;;;13.05;;
63005;SDS011;53704;52.532;6.426;2024-01-30T05:56:04;20.23;;;13.57;;
63005;SDS011;53704;52.532;6.426;2024-01-30T05:58:30;16.33;;;13.35;;
63005;SDS011;53704;52.532;6.426;2024-01-30T06:00:58;22.75;;;13.00;;
63005;SDS011;53704;52.532;6.426;2024-01-30T06:03:24;14.93;;;12.82;;
63005;SDS011;53704;52.532;6.426;2024-01-30T06:05:49;26.63;;;13.63;;
63005;SDS011;53704;52.532;6.426;2024-01-30T06:08:15;13.52;;;12.10;;
63005;SDS011;53704;52.532;6.426;2024-01-30T06:10:50;22.73;;;13.57;;
63005;SDS011;53704;52.532;6.426;2024-01-30T06:13:16;17.48;;;12.35;;
63005;SDS011;53704;52.532;6.426;2024-01-30T06:15:42;19.15;;;13.15;;
63005;SDS011;53704;52.532;6.426;2024-01-30T06:18:07;19.45;;;12.70;;
63005;SDS011;53704;52.532;6.426;2024-01-30T06:20:33;17.20;;;13.15;;
63005;SDS011;53704;52.532;6.426;2024-01-30T06:22:58;17.20;;;13.05;;
63005;SDS011;53704;52.532;6.426;2024-01-30T06:25:24;18.77;;;12.43;;
63005;SDS011;53704;52.532;6.426;2024-01-30T06:27:49;18.77;;;13.65;;
63005;SDS011;53704;52.532;6.426;2024-01-30T06:30:15;16.80;;;12.20;;
63005;SDS011;53704;52.532;6.426;2024-01-30T06:32:40;17.25;;;12.48;;
63005;SDS011;53704;52.532;6.426;2024-01-30T06:35:06;17.15;;;12.90;;
63005;SDS011;53704;52.532;6.426;2024-01-30T06:37:31;17.40;;;13.45;;
63005;SDS011;53704;52.532;6.426;2024-01-30T06:39:57;21.00;;;13.38;;
63005;SDS011;53704;52.532;6.426;2024-01-30T06:42:22;38.40;;;14.98;;
63005;SDS011;53704;52.532;6.426;2024-01-30T06:44:48;30.17;;;14.38;;
63005;SDS011;53704;52.532;6.426;2024-01-30T06:47:13;29.20;;;13.38;;
63005;SDS011;53704;52.532;6.426;2024-01-30T06:49:39;23.70;;;13.43;;
63005;SDS011;53704;52.532;6.426;2024-01-30T06:52:07;21.10;;;12.98;;
63005;SDS011;53704;52.532;6.426;2024-01-30T06:54:33;25.65;;;12.38;;
63005;SDS011;53704;52.532;6.426;2024-01-30T06:56:59;21.85;;;13.02;;
63005;SDS011;53704;52.532;6.426;2024-01-30T06:59:24;18.50;;;12.50;;
63005;SDS011;53704;52.532;6.426;2024-01-30T07:01:50;23.13;;;12.55;;
63005;SDS011;53704;52.532;6.426;2024-01-30T07:04:15;18.48;;;12.52;;
63005;SDS011;53704;52.532;6.426;2024-01-30T07:06:41;15.80;;;12.57;;
63005;SDS011;53704;52.532;6.426;2024-01-30T07:09:07;17.40;;;12.55;;
63005;SDS011;53704;52.532;6.426;2024-01-30T07:11:33;21.15;;;12.80;;
63005;SDS011;53704;52.532;6.426;2024-01-30T07:13:59;19.48;;;12.88;;
63005;SDS011;53704;52.532;6.426;2024-01-30T07:16:24;15.02;;;11.75;;
63005;SDS011;53704;52.532;6.426;2024-01-30T07:18:53;18.02;;;12.45;;
63005;SDS011;53704;52.532;6.426;2024-01-30T07:21:18;14.55;;;11.30;;
63005;SDS011;53704;52.532;6.426;2024-01-30T07:23:46;16.05;;;11.77;;
63005;SDS011;53704;52.532;6.426;2024-01-30T07:26:12;17.88;;;12.18;;
63005;SDS011;53704;52.532;6.426;2024-01-30T07:28:37;18.65;;;12.05;;
63005;SDS011;53704;52.532;6.426;2024-01-30T07:31:03;14.02;;;12.25;;
63005;SDS011;53704;52.532;6.426;2024-01-30T07:33:29;15.63;;;12.10;;
63005;SDS011;53704;52.532;6.426;2024-01-30T07:35:54;14.88;;;10.85;;
63005;SDS011;53704;52.532;6.426;2024-01-30T07:38:20;19.58;;;10.95;;
63005;SDS011;53704;52.532;6.426;2024-01-30T07:40:45;19.15;;;12.27;;
63005;SDS011;53704;52.532;6.426;2024-01-30T07:43:11;18.73;;;11.18;;
63005;SDS011;53704;52.532;6.426;2024-01-30T07:45:37;20.02;;;11.48;;
63005;SDS011;53704;52.532;6.426;2024-01-30T07:48:03;13.18;;;11.13;;
63005;SDS011;53704;52.532;6.426;2024-01-30T07:50:30;12.45;;;10.80;;
63005;SDS011;53704;52.532;6.426;2024-01-30T07:52:56;15.18;;;11.25;;
63005;SDS011;53704;52.532;6.426;2024-01-30T07:55:22;15.48;;;11.65;;
63005;SDS011;53704;52.532;6.426;2024-01-30T07:57:52;12.85;;;11.45;;
63005;SDS011;53704;52.532;6.426;2024-01-30T08:00:18;22.70;;;10.85;;
63005;SDS011;53704;52.532;6.426;2024-01-30T08:02:46;14.10;;;11.73;;
63005;SDS011;53704;52.532;6.426;2024-01-30T08:05:12;22.20;;;12.10;;
63005;SDS011;53704;52.532;6.426;2024-01-30T08:07:39;15.02;;;11.38;;
63005;SDS011;53704;52.532;6.426;2024-01-30T08:10:07;16.63;;;10.98;;
63005;SDS011;53704;52.532;6.426;2024-01-30T08:12:33;18.48;;;10.98;;
63005;SDS011;53704;52.532;6.426;2024-01-30T08:14:58;11.57;;;10.48;;
63005;SDS011;53704;52.532;6.426;2024-01-30T08:17:24;11.20;;;9.87;;
63005;SDS011;53704;52.532;6.426;2024-01-30T08:19:49;11.65;;;9.55;;
63005;SDS011;53704;52.532;6.426;2024-01-30T08:22:14;17.58;;;11.15;;
63005;SDS011;53704;52.532;6.426;2024-01-30T08:24:40;12.13;;;9.80;;
63005;SDS011;53704;52.532;6.426;2024-01-30T08:27:06;11.55;;;9.60;;
63005;SDS011;53704;52.532;6.426;2024-01-30T08:29:34;13.20;;;10.18;;
63005;SDS011;53704;52.532;6.426;2024-01-30T08:32:00;11.75;;;9.52;;
63005;SDS011;53704;52.532;6.426;2024-01-30T08:34:26;15.80;;;10.65;;
63005;SDS011;53704;52.532;6.426;2024-01-30T08:36:52;13.98;;;9.70;;
63005;SDS011;53704;52.532;6.426;2024-01-30T08:39:17;14.63;;;10.07;;
63005;SDS011;53704;52.532;6.426;2024-01-30T08:41:43;12.30;;;10.27;;
63005;SDS011;53704;52.532;6.426;2024-01-30T08:44:08;11.20;;;9.68;;
63005;SDS011;53704;52.532;6.426;2024-01-30T08:46:35;11.63;;;10.27;;
63005;SDS011;53704;52.532;6.426;2024-01-30T08:49:01;14.70;;;9.13;;
63005;SDS011;53704;52.532;6.426;2024-01-30T08:51:26;13.07;;;10.60;;
63005;SDS011;53704;52.532;6.426;2024-01-30T08:53:52;15.75;;;9.55;;
63005;SDS011;53704;52.532;6.426;2024-01-30T08:56:18;11.15;;;8.85;;
63005;SDS011;53704;52.532;6.426;2024-01-30T08:58:44;20.00;;;10.57;;
63005;SDS011;53704;52.532;6.426;2024-01-30T09:01:09;16.60;;;10.07;;
63005;SDS011;53704;52.532;6.426;2024-01-30T09:03:35;15.77;;;8.85;;
63005;SDS011;53704;52.532;6.426;2024-01-30T09:06:01;12.65;;;9.38;;
63005;SDS011;53704;52.532;6.426;2024-01-30T09:08:27;14.77;;;9.82;;
63005;SDS011;53704;52.532;6.426;2024-01-30T09:10:52;14.65;;;10.32;;
63005;SDS011;53704;52.532;6.426;2024-01-30T09:13:18;11.02;;;9.02;;
63005;SDS011;53704;52.532;6.426;2024-01-30T09:15:43;13.98;;;9.80;;
63005;SDS011;53704;52.532;6.426;2024-01-30T09:18:09;12.27;;;9.05;;
63005;SDS011;53704;52.532;6.426;2024-01-30T09:20:34;14.73;;;11.07;;
63005;SDS011;53704;52.532;6.426;2024-01-30T09:23:00;10.93;;;9.38;;
63005;SDS011;53704;52.532;6.426;2024-01-30T09:25:25;14.30;;;10.45;;
63005;SDS011;53704;52.532;6.426;2024-01-30T09:27:51;11.68;;;8.90;;
63005;SDS011;53704;52.532;6.426;2024-01-30T09:30:16;13.43;;;9.55;;
63005;SDS011;53704;52.532;6.426;2024-01-30T09:32:42;13.18;;;9.73;;
63005;SDS011;53704;52.532;6.426;2024-01-30T09:35:08;15.25;;;9.50;;
63005;SDS011;53704;52.532;6.426;2024-01-30T09:37:34;18.98;;;9.10;;
63005;SDS011;53704;52.532;6.426;2024-01-30T09:39:59;12.85;;;9.15;;
63005;SDS011;53704;52.532;6.426;2024-01-30T09:42:43;11.40;;;8.63;;
63005;SDS011;53704;52.532;6.426;2024-01-30T09:45:11;10.48;;;8.82;;
63005;SDS011;53704;52.532;6.426;2024-01-30T09:47:43;15.15;;;9.05;;
63005;SDS011;53704;52.532;6.426;2024-01-30T09:50:09;16.27;;;8.20;;
63005;SDS011;53704;52.532;6.426;2024-01-30T09:52:36;13.35;;;9.90;;
63005;SDS011;53704;52.532;6.426;2024-01-30T09:55:02;14.68;;;9.50;;
63005;SDS011;53704;52.532;6.426;2024-01-30T09:57:28;18.17;;;9.15;;
63005;SDS011;53704;52.532;6.426;2024-01-30T09:59:53;13.85;;;8.63;;
63005;SDS011;53704;52.532;6.426;2024-01-30T10:02:19;12.35;;;8.88;;
63005;SDS011;53704;52.532;6.426;2024-01-30T10:04:49;14.50;;;8.90;;
63005;SDS011;53704;52.532;6.426;2024-01-30T10:07:15;14.07;;;8.60;;
63005;SDS011;53704;52.532;6.426;2024-01-30T10:09:41;10.27;;;9.05;;
63005;SDS011;53704;52.532;6.426;2024-01-30T10:12:07;11.18;;;8.77;;
63005;SDS011;53704;52.532;6.426;2024-01-30T10:14:37;22.55;;;9.90;;
63005;SDS011;53704;52.532;6.426;2024-01-30T10:17:06;15.05;;;10.18;;
63005;SDS011;53704;52.532;6.426;2024-01-30T10:19:44;10.38;;;9.27;;
63005;SDS011;53704;52.532;6.426;2024-01-30T10:24:35;14.13;;;8.43;;
63005;SDS011;53704;52.532;6.426;2024-01-30T10:27:01;16.75;;;8.85;;
63005;SDS011;53704;52.532;6.426;2024-01-30T10:29:26;12.55;;;8.90;;
63005;SDS011;53704;52.532;6.426;2024-01-30T10:32:03;19.45;;;8.90;;
63005;SDS011;53704;52.532;6.426;2024-01-30T10:34:30;13.82;;;9.18;;
63005;SDS011;53704;52.532;6.426;2024-01-30T10:37:29;20.15;;;9.00;;
63005;SDS011;53704;52.532;6.426;2024-01-30T10:39:50;16.38;;;10.15;;
63005;SDS011;53704;52.532;6.426;2024-01-30T10:42:18;12.25;;;8.77;;
63005;SDS011;53704;52.532;6.426;2024-01-30T10:47:14;14.18;;;10.15;;
63005;SDS011;53704;52.532;6.426;2024-01-30T10:49:46;10.75;;;9.20;;
63005;SDS011;53704;52.532;6.426;2024-01-30T10:52:12;17.25;;;9.57;;
63005;SDS011;53704;52.532;6.426;2024-01-30T10:54:40;17.02;;;9.15;;
63005;SDS011;53704;52.532;6.426;2024-01-30T10:57:10;13.98;;;8.65;;
63005;SDS011;53704;52.532;6.426;2024-01-30T10:59:37;11.43;;;8.02;;
63005;SDS011;53704;52.532;6.426;2024-01-30T11:02:04;15.45;;;9.13;;
63005;SDS011;53704;52.532;6.426;2024-01-30T11:04:42;16.80;;;9.50;;
63005;SDS011;53704;52.532;6.426;2024-01-30T11:07:17;20.15;;;9.80;;
63005;SDS011;53704;52.532;6.426;2024-01-30T11:09:50;12.30;;;8.93;;
63005;SDS011;53704;52.532;6.426;2024-01-30T11:12:16;11.40;;;8.88;;
63005;SDS011;53704;52.532;6.426;2024-01-30T11:14:41;16.80;;;9.77;;
63005;SDS011;53704;52.532;6.426;2024-01-30T11:17:08;17.05;;;9.63;;
63005;SDS011;53704;52.532;6.426;2024-01-30T11:19:35;13.48;;;9.27;;
63005;SDS011;53704;52.532;6.426;2024-01-30T11:22:00;19.33;;;8.93;;
63005;SDS011;53704;52.532;6.426;2024-01-30T11:24:26;15.95;;;8.65;;
63005;SDS011;53704;52.532;6.426;2024-01-30T11:26:56;20.77;;;9.60;;
63005;SDS011;53704;52.532;6.426;2024-01-30T11:29:26;15.60;;;8.00;;
63005;SDS011;53704;52.532;6.426;2024-01-30T11:31:53;15.90;;;8.93;;
63005;SDS011;53704;52.532;6.426;2024-01-30T11:34:23;18.40;;;8.93;;
63005;SDS011;53704;52.532;6.426;2024-01-30T11:36:52;11.00;;;7.78;;
63005;SDS011;53704;52.532;6.426;2024-01-30T11:39:24;13.05;;;8.65;;
63005;SDS011;53704;52.532;6.426;2024-01-30T11:41:50;17.80;;;8.07;;
63005;SDS011;53704;52.532;6.426;2024-01-30T11:44:17;17.98;;;8.57;;
63005;SDS011;53704;52.532;6.426;2024-01-30T11:46:44;17.45;;;9.13;;
63005;SDS011;53704;52.532;6.426;2024-01-30T11:49:10;14.27;;;7.68;;
63005;SDS011;53704;52.532;6.426;2024-01-30T11:51:35;14.43;;;7.75;;
63005;SDS011;53704;52.532;6.426;2024-01-30T11:54:04;19.35;;;7.93;;
63005;SDS011;53704;52.532;6.426;2024-01-30T11:56:29;9.23;;;8.05;;
63005;SDS011;53704;52.532;6.426;2024-01-30T11:58:55;14.80;;;7.70;;
63005;SDS011;53704;52.532;6.426;2024-01-30T12:01:20;15.68;;;7.25;;
63005;SDS011;53704;52.532;6.426;2024-01-30T12:03:49;14.55;;;7.68;;
63005;SDS011;53704;52.532;6.426;2024-01-30T12:06:15;11.38;;;7.57;;
63005;SDS011;53704;52.532;6.426;2024-01-30T12:08:41;10.98;;;7.13;;
63005;SDS011;53704;52.532;6.426;2024-01-30T12:11:07;12.95;;;7.15;;
63005;SDS011;53704;52.532;6.426;2024-01-30T12:13:32;15.63;;;6.80;;
63005;SDS011;53704;52.532;6.426;2024-01-30T12:15:59;12.95;;;7.03;;
63005;SDS011;53704;52.532;6.426;2024-01-30T12:18:25;9.63;;;7.03;;
63005;SDS011;53704;52.532;6.426;2024-01-30T12:21:00;9.05;;;6.85;;
63005;SDS011;53704;52.532;6.426;2024-01-30T12:23:28;17.95;;;7.53;;
63005;SDS011;53704;52.532;6.426;2024-01-30T12:25:54;13.27;;;7.47;;
63005;SDS011;53704;52.532;6.426;2024-01-30T12:28:20;13.98;;;7.22;;
63005;SDS011;53704;52.532;6.426;2024-01-30T12:30:45;18.10;;;7.35;;
63005;SDS011;53704;52.532;6.426;2024-01-30T12:33:17;15.55;;;7.10;;
63005;SDS011;53704;52.532;6.426;2024-01-30T12:35:46;13.18;;;7.13;;
63005;SDS011;53704;52.532;6.426;2024-01-30T12:38:14;14.43;;;6.95;;
63005;SDS011;53704;52.532;6.426;2024-01-30T12:40:40;16.02;;;7.18;;
63005;SDS011;53704;52.532;6.426;2024-01-30T12:43:05;16.73;;;7.30;;
63005;SDS011;53704;52.532;6.426;2024-01-30T12:45:30;15.15;;;6.75;;
63005;SDS011;53704;52.532;6.426;2024-01-30T12:47:57;12.02;;;6.75;;
63005;SDS011;53704;52.532;6.426;2024-01-30T12:50:23;12.90;;;6.53;;
63005;SDS011;53704;52.532;6.426;2024-01-30T12:52:48;14.73;;;6.25;;
63005;SDS011;53704;52.532;6.426;2024-01-30T12:55:14;14.85;;;6.35;;
63005;SDS011;53704;52.532;6.426;2024-01-30T12:57:42;18.77;;;6.13;;
63005;SDS011;53704;52.532;6.426;2024-01-30T13:00:08;20.67;;;5.05;;
63005;SDS011;53704;52.532;6.426;2024-01-30T13:02:34;11.90;;;4.85;;
63005;SDS011;53704;52.532;6.426;2024-01-30T13:05:02;16.50;;;4.55;;
63005;SDS011;53704;52.532;6.426;2024-01-30T13:07:31;12.65;;;3.67;;
63005;SDS011;53704;52.532;6.426;2024-01-30T13:09:57;10.60;;;3.30;;
63005;SDS011;53704;52.532;6.426;2024-01-30T13:12:28;14.35;;;3.65;;
63005;SDS011;53704;52.532;6.426;2024-01-30T13:14:54;10.63;;;2.55;;
63005;SDS011;53704;52.532;6.426;2024-01-30T13:17:20;8.07;;;3.05;;
63005;SDS011;53704;52.532;6.426;2024-01-30T13:19:45;4.32;;;2.85;;
63005;SDS011;53704;52.532;6.426;2024-01-30T13:22:11;8.75;;;3.13;;
63005;SDS011;53704;52.532;6.426;2024-01-30T13:24:36;15.57;;;3.15;;
63005;SDS011;53704;52.532;6.426;2024-01-30T13:27:02;7.40;;;2.80;;
63005;SDS011;53704;52.532;6.426;2024-01-30T13:29:30;5.45;;;3.13;;
63005;SDS011;53704;52.532;6.426;2024-01-30T13:31:56;6.38;;;2.35;;
63005;SDS011;53704;52.532;6.426;2024-01-30T13:34:21;7.28;;;2.35;;
63005;SDS011;53704;52.532;6.426;2024-01-30T13:36:47;6.38;;;2.05;;
63005;SDS011;53704;52.532;6.426;2024-01-30T13:39:13;8.30;;;2.67;;
63005;SDS011;53704;52.532;6.426;2024-01-30T13:41:40;3.40;;;1.90;;
63005;SDS011;53704;52.532;6.426;2024-01-30T13:44:07;5.93;;;3.00;;
63005;SDS011;53704;52.532;6.426;2024-01-30T13:46:33;4.72;;;2.35;;
63005;SDS011;53704;52.532;6.426;2024-01-30T13:48:59;3.50;;;2.80;;
63005;SDS011;53704;52.532;6.426;2024-01-30T13:51:25;11.35;;;2.83;;
63005;SDS011;53704;52.532;6.426;2024-01-30T13:53:50;10.70;;;3.30;;
63005;SDS011;53704;52.532;6.426;2024-01-30T13:56:16;5.10;;;2.55;;
63005;SDS011;53704;52.532;6.426;2024-01-30T13:58:41;6.15;;;3.45;;
63005;SDS011;53704;52.532;6.426;2024-01-30T14:01:07;2.92;;;2.60;;
63005;SDS011;53704;52.532;6.426;2024-01-30T14:03:32;5.78;;;2.35;;
63005;SDS011;53704;52.532;6.426;2024-01-30T14:05:58;5.60;;;2.33;;
63005;SDS011;53704;52.532;6.426;2024-01-30T14:08:24;7.78;;;1.52;;
63005;SDS011;53704;52.532;6.426;2024-01-30T14:10:53;5.28;;;1.67;;
63005;SDS011;53704;52.532;6.426;2024-01-30T14:13:19;2.35;;;1.60;;
63005;SDS011;53704;52.532;6.426;2024-01-30T14:15:44;5.07;;;1.42;;
63005;SDS011;53704;52.532;6.426;2024-01-30T14:18:10;6.10;;;1.40;;
63005;SDS011;53704;52.532;6.426;2024-01-30T14:20:36;2.60;;;1.17;;
63005;SDS011;53704;52.532;6.426;2024-01-30T14:23:01;2.25;;;1.27;;
63005;SDS011;53704;52.532;6.426;2024-01-30T14:25:27;4.28;;;3.50;;
63005;SDS011;53704;52.532;6.426;2024-01-30T14:27:52;2.75;;;1.60;;